Time;durP1;ratioP1;P1;durP2;ratioP2;P2;SDS_P1;SDS_P2;PMS_P1;PMS_P2;Temp;Humidity;BMP_temperature;BMP_pressure;BME280_temperature;BME280_humidity;BME280_pressure;Samples;Min_cycle;Max_cycle;Signal;HPM_P1;HPM_P2
2023/06/05 00:01:11;;;;;;;7.18;5.57;;;21.60;91.30;;;;;;5112588;28;20517;-70
2023/06/05 00:03:39;;;;;;;10.20;6.10;;;21.60;91.50;;;;;;5112753;28;20056;-70
2023/06/05 00:06:06;;;;;;;6.45;5.82;;;21.50;91.60;;;;;;5112639;28;20489;-70
2023/06/05 00:08:32;;;;;;;6.53;5.70;;;21.50;91.60;;;;;;5112685;28;20089;-71
2023/06/05 00:10:58;;;;;;;9.88;5.65;;;21.50;91.60;;;;;;5112412;28;20514;-70
2023/06/05 00:13:24;;;;;;;10.77;5.90;;;21.50;91.60;;;;;;5112977;28;20052;-70
2023/06/05 00:15:51;;;;;;;11.65;6.35;;;21.40;91.60;;;;;;5112816;28;20017;-71
2023/06/05 00:18:17;;;;;;;12.48;6.78;;;21.40;91.70;;;;;;5112683;28;20024;-71
2023/06/05 00:20:43;;;;;;;10.63;5.65;;;21.40;91.80;;;;;;5112207;28;20049;-72
2023/06/05 00:23:11;;;;;;;6.88;5.15;;;21.40;91.80;;;;;;5112583;28;20464;-72
2023/06/05 00:25:37;;;;;;;9.40;6.03;;;21.40;91.80;;;;;;5114447;28;20039;-71
2023/06/05 00:28:03;;;;;;;7.53;5.85;;;21.40;91.80;;;;;;5116047;28;20039;-72
2023/06/05 00:30:28;;;;;;;9.07;5.88;;;21.40;91.80;;;;;;5116201;28;20024;-71
2023/06/05 00:32:55;;;;;;;8.05;5.53;;;21.30;91.60;;;;;;5115921;28;20395;-71
2023/06/05 00:35:21;;;;;;;7.75;5.50;;;21.40;91.50;;;;;;5115898;28;20023;-71
2023/06/05 00:37:47;;;;;;;7.80;5.65;;;21.30;91.40;;;;;;5098386;28;20382;-70
2023/06/05 00:40:14;;;;;;;13.38;5.72;;;21.30;91.50;;;;;;5116666;28;20126;-71
2023/06/05 00:42:40;;;;;;;7.60;6.13;;;21.30;91.50;;;;;;5116572;28;20029;-70
2023/06/05 00:45:06;;;;;;;8.13;5.90;;;21.30;91.50;;;;;;5116537;28;20042;-69
2023/06/05 00:47:33;;;;;;;9.43;5.80;;;21.30;91.60;;;;;;5116490;28;20039;-69
2023/06/05 01:04:08;;;;;;;9.13;5.75;;;21.20;91.70;;;;;;5009516;28;20751;-72
2023/06/05 01:06:57;;;;;;;8.25;5.50;;;21.20;91.80;;;;;;5004288;28;20124;-71
2023/06/05 01:09:47;;;;;;;7.78;5.50;;;21.20;91.90;;;;;;5032111;28;20037;-71
2023/06/05 01:13:09;;;;;;;7.03;4.97;;;21.20;91.90;;;;;;5072069;28;20037;-71
2023/06/05 01:15:36;;;;;;;7.15;5.10;;;21.20;92.00;;;;;;5051157;28;20075;-71
2023/06/05 01:18:03;;;;;;;5.47;4.50;;;21.20;91.90;;;;;;5052209;28;20375;-70
2023/06/05 01:20:41;;;;;;;7.28;4.53;;;21.20;91.80;;;;;;5089500;28;20402;-70
2023/06/05 01:23:08;;;;;;;10.52;5.60;;;21.20;91.80;;;;;;5114879;28;20015;-70
2023/06/05 01:25:36;;;;;;;6.47;5.10;;;21.20;92.00;;;;;;5115238;28;20356;-72
2023/06/05 01:28:18;;;;;;;6.82;4.30;;;21.20;92.10;;;;;;5114516;28;20032;-70
2023/06/05 01:31:01;;;;;;;8.32;4.57;;;21.20;91.90;;;;;;5114866;28;20361;-71
2023/06/05 01:33:36;;;;;;;5.88;4.32;;;21.20;91.60;;;;;;5114703;28;20028;-71
2023/06/05 01:36:04;;;;;;;6.95;4.55;;;21.20;91.50;;;;;;5114065;28;20020;-70
2023/06/05 01:38:35;;;;;;;9.45;4.82;;;21.20;91.30;;;;;;5114206;28;20416;-70
2023/06/05 01:41:03;;;;;;;6.47;4.40;;;21.20;91.20;;;;;;5114696;28;20023;-70
2023/06/05 01:43:30;;;;;;;6.15;4.75;;;21.20;91.20;;;;;;5114544;28;20022;-70
2023/06/05 01:45:58;;;;;;;6.82;4.72;;;21.20;91.10;;;;;;5114577;28;20475;-70
2023/06/05 01:48:27;;;;;;;12.68;5.55;;;21.20;91.20;;;;;;5114587;28;20522;-70
2023/06/05 01:50:58;;;;;;;7.03;5.18;;;21.10;91.30;;;;;;5114316;28;20176;-70
2023/06/05 01:53:24;;;;;;;9.95;5.40;;;21.20;91.40;;;;;;5114358;28;20039;-70
2023/06/05 01:55:53;;;;;;;9.32;5.88;;;21.10;91.40;;;;;;5114613;28;20024;-69
2023/06/05 01:58:21;;;;;;;9.82;5.88;;;21.10;91.50;;;;;;5114507;28;20027;-69
2023/06/05 02:00:47;;;;;;;7.57;5.50;;;21.10;91.50;;;;;;5114349;28;20019;-69
2023/06/05 02:03:17;;;;;;;8.75;5.18;;;21.10;91.60;;;;;;5114296;28;20035;-69
2023/06/05 02:05:44;;;;;;;7.45;5.28;;;21.10;91.70;;;;;;5114271;28;20062;-69
2023/06/05 02:08:10;;;;;;;7.43;5.35;;;21.10;91.60;;;;;;5114097;28;20058;-69
2023/06/05 02:10:44;;;;;;;10.48;5.00;;;21.10;91.70;;;;;;5114101;28;20052;-69
2023/06/05 02:13:15;;;;;;;7.22;5.43;;;21.00;91.70;;;;;;5113943;28;20118;-69
2023/06/05 02:15:41;;;;;;;7.57;5.30;;;21.00;91.60;;;;;;5114239;28;20038;-69
2023/06/05 02:18:07;;;;;;;6.93;5.53;;;21.00;91.60;;;;;;5096272;28;20028;-69
2023/06/05 02:20:35;;;;;;;5.20;4.70;;;21.00;91.70;;;;;;5114608;28;20019;-71
2023/06/05 02:23:01;;;;;;;9.60;4.82;;;21.00;91.90;;;;;;5114666;28;20023;-71
2023/06/05 02:36:45;;;;;;;10.00;5.80;;;21.00;92.30;;;;;;4992130;28;20491;-70
2023/06/05 02:40:10;;;;;;;12.05;6.45;;;21.00;92.70;;;;;;4895231;29;20505;-71
2023/06/05 02:45:49;;;;;;;7.75;5.60;;;20.90;92.80;;;;;;4785703;29;20555;-70
2023/06/05 02:48:37;;;;;;;8.20;6.00;;;20.90;93.00;;;;;;4785296;29;20089;-70
2023/06/05 02:51:03;;;;;;;6.47;4.63;;;20.90;93.10;;;;;;4785621;29;20040;-70
2023/06/05 02:53:29;;;;;;;9.30;4.05;;;20.90;93.20;;;;;;4910528;29;20028;-69
2023/06/05 02:55:56;;;;;;;5.65;2.83;;;20.90;93.30;;;;;;4940431;28;20042;-69
2023/06/05 02:58:22;;;;;;;6.68;3.15;;;20.90;93.00;;;;;;5113454;28;20420;-69
2023/06/05 03:00:50;;;;;;;7.53;3.10;;;20.80;93.00;;;;;;5113475;28;20028;-69
2023/06/05 03:03:16;;;;;;;3.50;3.03;;;20.70;93.40;;;;;;5113292;28;20034;-69
2023/06/05 03:05:44;;;;;;;6.05;3.08;;;20.60;93.50;;;;;;5113375;28;20043;-70
2023/06/05 03:08:10;;;;;;;6.72;2.92;;;20.50;93.80;;;;;;5113084;28;20405;-70
2023/06/05 03:10:36;;;;;;;4.28;3.25;;;20.50;94.30;;;;;;5112798;28;20047;-70
2023/06/05 03:13:02;;;;;;;7.45;3.47;;;20.40;94.50;;;;;;5112886;28;20047;-69
2023/06/05 03:15:28;;;;;;;5.90;3.78;;;20.40;94.80;;;;;;5113123;28;20056;-69
2023/06/05 03:17:54;;;;;;;8.50;3.55;;;20.40;94.90;;;;;;5113118;28;20038;-70
2023/06/05 03:20:20;;;;;;;7.68;3.35;;;20.30;95.10;;;;;;5113189;28;20027;-69
2023/06/05 03:22:46;;;;;;;8.82;3.28;;;20.20;95.10;;;;;;5113093;28;20473;-69
2023/06/05 03:25:11;;;;;;;9.88;3.08;;;20.20;95.10;;;;;;5113166;28;20101;-69
2023/06/05 03:27:37;;;;;;;8.65;2.70;;;20.20;94.90;;;;;;5113082;28;20032;-70
2023/06/05 03:30:04;;;;;;;5.47;2.70;;;20.10;95.00;;;;;;5112827;28;20035;-69
2023/06/05 03:32:30;;;;;;;9.20;3.00;;;20.00;95.00;;;;;;5113231;28;20043;-71
2023/06/05 03:34:56;;;;;;;7.78;2.85;;;20.00;95.20;;;;;;5112972;28;20038;-71
2023/06/05 03:37:22;;;;;;;8.18;3.00;;;19.90;95.20;;;;;;5112955;28;20020;-71
2023/06/05 03:39:47;;;;;;;6.70;2.45;;;19.90;95.40;;;;;;5112720;28;20023;-70
2023/06/05 03:42:13;;;;;;;10.10;2.35;;;19.80;95.30;;;;;;5112783;28;20030;-71
2023/06/05 03:44:39;;;;;;;9.68;2.58;;;19.80;95.20;;;;;;5112891;28;20356;-71
2023/06/05 03:47:06;;;;;;;6.57;2.70;;;19.70;95.20;;;;;;5112894;28;20103;-71
2023/06/05 03:49:32;;;;;;;8.40;2.25;;;19.70;95.30;;;;;;5112752;28;20034;-70
2023/06/05 03:52:01;;;;;;;3.58;2.40;;;19.60;95.30;;;;;;5113445;28;20028;-71
2023/06/05 03:54:32;;;;;;;9.68;2.60;;;19.60;95.30;;;;;;5113477;28;20058;-71
2023/06/05 03:57:00;;;;;;;7.38;2.08;;;19.50;95.40;;;;;;5113317;28;20024;-71
2023/06/05 03:59:28;;;;;;;2.97;1.90;;;19.50;95.40;;;;;;5113122;28;20016;-70
2023/06/05 04:01:55;;;;;;;5.88;2.30;;;19.50;95.60;;;;;;5116728;28;20399;-71
2023/06/05 04:05:21;;;;;;;3.88;2.20;;;19.40;95.70;;;;;;5116822;28;20445;-70
2023/06/05 04:07:53;;;;;;;3.63;2.22;;;19.30;96.10;;;;;;5053783;28;20486;-70
2023/06/05 04:11:26;;;;;;;4.07;2.22;;;19.30;96.00;;;;;;5052735;28;20076;-70
2023/06/05 04:14:34;;;;;;;6.15;2.88;;;19.30;96.30;;;;;;5031922;28;20046;-69
2023/06/05 04:17:49;;;;;;;6.05;2.30;;;19.30;96.40;;;;;;5012592;28;20041;-70
2023/06/05 04:26:55;;;;;;;5.45;2.67;;;19.30;96.90;;;;;;5074834;28;20056;-71
2023/06/05 04:29:21;;;;;;;4.50;2.60;;;19.40;96.80;;;;;;5116373;28;20375;-72
2023/06/05 04:31:47;;;;;;;6.82;2.63;;;19.40;96.90;;;;;;5116237;28;20020;-71
2023/06/05 04:34:14;;;;;;;5.65;2.60;;;19.40;96.90;;;;;;5116076;28;20023;-70
2023/06/05 04:36:40;;;;;;;4.88;3.03;;;19.40;96.90;;;;;;5116290;28;20043;-70
2023/06/05 04:39:15;;;;;;;5.25;2.88;;;19.40;96.90;;;;;;5097762;28;20023;-69
2023/06/05 04:41:46;;;;;;;5.50;2.88;;;19.40;97.30;;;;;;5116091;28;20055;-70
2023/06/05 04:44:16;;;;;;;6.78;3.00;;;19.50;97.20;;;;;;5115882;28;20028;-69
2023/06/05 04:46:46;;;;;;;6.50;2.92;;;19.40;97.30;;;;;;5097514;28;20027;-69
2023/06/05 04:49:13;;;;;;;5.88;3.10;;;19.50;97.30;;;;;;5115956;28;20028;-70
2023/06/05 04:51:40;;;;;;;8.30;3.75;;;19.50;97.50;;;;;;5115964;28;20050;-69
2023/06/05 04:54:05;;;;;;;5.28;3.28;;;19.50;97.40;;;;;;5115786;28;20019;-69
2023/06/05 04:56:32;;;;;;;5.78;2.80;;;19.50;97.40;;;;;;5115395;28;20023;-70
2023/06/05 04:58:59;;;;;;;7.50;3.08;;;19.50;97.50;;;;;;5097078;28;20023;-70
2023/06/05 05:01:27;;;;;;;4.47;2.40;;;19.60;97.60;;;;;;5115751;28;20028;-70
2023/06/05 05:03:54;;;;;;;2.63;2.20;;;19.60;97.50;;;;;;5115331;28;20466;-69
2023/06/05 05:06:20;;;;;;;5.20;2.30;;;19.60;97.50;;;;;;5114888;28;20386;-70
2023/06/05 05:08:50;;;;;;;3.85;2.42;;;19.60;97.40;;;;;;5096627;28;20027;-70
2023/06/05 05:11:20;;;;;;;5.28;2.65;;;19.60;97.40;;;;;;5114845;28;20047;-70
2023/06/05 05:13:46;;;;;;;3.53;2.40;;;19.60;97.40;;;;;;5115277;28;20023;-69
2023/06/05 05:16:12;;;;;;;6.38;3.17;;;19.70;97.40;;;;;;5115153;28;20046;-70
2023/06/05 05:18:43;;;;;;;7.00;3.22;;;19.70;97.40;;;;;;5115296;28;20020;-70
2023/06/05 05:21:09;;;;;;;3.88;2.78;;;19.70;97.50;;;;;;5115418;28;20073;-70
2023/06/05 05:23:35;;;;;;;4.47;3.55;;;19.70;97.60;;;;;;5115157;28;20441;-70
2023/06/05 05:26:02;;;;;;;5.10;3.72;;;19.70;97.70;;;;;;5114945;28;20023;-70
2023/06/05 05:28:28;;;;;;;5.60;3.50;;;19.70;97.70;;;;;;5114873;28;20032;-69
2023/06/05 05:30:56;;;;;;;5.15;3.42;;;19.70;97.70;;;;;;5115490;28;20020;-69
2023/06/05 05:33:22;;;;;;;6.68;4.40;;;19.70;97.90;;;;;;5115700;28;20110;-69
2023/06/05 05:35:48;;;;;;;6.10;3.35;;;19.70;98.00;;;;;;5115219;28;20020;-69
2023/06/05 05:38:15;;;;;;;7.57;3.90;;;19.70;98.00;;;;;;5115242;28;20081;-69
2023/06/05 05:41:15;;;;;;;7.90;3.80;;;19.70;98.00;;;;;;5115353;28;20015;-69
2023/06/05 05:44:07;;;;;;;7.93;4.05;;;19.70;97.90;;;;;;5114987;28;20031;-69
2023/06/05 05:46:36;;;;;;;8.63;5.13;;;19.70;98.00;;;;;;5114598;28;20360;-70
2023/06/05 05:49:08;;;;;;;5.47;4.50;;;19.70;98.00;;;;;;5114442;28;20035;-70
2023/06/05 05:52:44;;;;;;;6.10;4.85;;;19.70;97.90;;;;;;5114431;28;20421;-69
2023/06/05 05:55:12;;;;;;;9.02;4.28;;;19.70;97.80;;;;;;5110427;28;20051;-69
2023/06/05 06:01:49;;;;;;;12.18;5.25;;;19.70;97.70;;;;;;5114400;28;20084;-69
2023/06/05 06:04:20;;;;;;;7.05;5.63;;;19.70;98.00;;;;;;5017447;28;20021;-72
2023/06/05 06:06:52;;;;;;;7.80;6.07;;;19.70;98.20;;;;;;5109648;28;20035;-71
2023/06/05 06:09:18;;;;;;;9.27;5.43;;;19.70;98.20;;;;;;5095825;28;20422;-72
2023/06/05 06:11:44;;;;;;;7.03;4.82;;;19.60;98.30;;;;;;5095752;28;20384;-71
2023/06/05 06:14:10;;;;;;;7.50;5.20;;;19.70;98.30;;;;;;5114408;28;20032;-72
2023/06/05 06:16:37;;;;;;;6.97;4.70;;;19.70;98.30;;;;;;5114263;28;20080;-72
2023/06/05 06:19:04;;;;;;;7.20;5.30;;;19.70;98.40;;;;;;5114284;28;20031;-71
2023/06/05 06:21:30;;;;;;;6.65;4.95;;;19.70;98.30;;;;;;5114203;28;20028;-70
2023/06/05 06:23:57;;;;;;;6.40;4.90;;;19.70;98.40;;;;;;5113054;28;20035;-69
2023/06/05 06:26:23;;;;;;;7.28;4.80;;;19.60;98.30;;;;;;5114016;28;20437;-72
2023/06/05 06:28:48;;;;;;;8.35;5.05;;;19.70;98.40;;;;;;5113538;28;20376;-71
2023/06/05 06:31:14;;;;;;;6.10;4.93;;;19.70;98.40;;;;;;5113563;28;20023;-71
2023/06/05 06:33:40;;;;;;;6.35;5.20;;;19.70;98.40;;;;;;5113563;28;20030;-71
2023/06/05 06:36:06;;;;;;;8.68;5.43;;;19.70;98.50;;;;;;5113385;28;20031;-70
2023/06/05 06:38:32;;;;;;;6.30;5.15;;;19.70;98.60;;;;;;5113741;28;20023;-70
2023/06/05 06:40:59;;;;;;;6.57;4.78;;;19.70;98.60;;;;;;5113532;28;20016;-71
2023/06/05 06:43:25;;;;;;;10.43;4.82;;;19.70;98.80;;;;;;5111605;28;20498;-70
2023/06/05 06:45:52;;;;;;;5.35;4.85;;;19.80;98.80;;;;;;5103716;28;20027;-72
2023/06/05 06:48:18;;;;;;;7.38;5.15;;;19.80;98.60;;;;;;5103062;28;20027;-72
2023/06/05 06:50:44;;;;;;;8.52;5.60;;;19.80;98.90;;;;;;5098765;28;20035;-71
2023/06/05 06:53:10;;;;;;;5.97;5.32;;;19.80;98.70;;;;;;5099267;28;20034;-72
2023/06/05 06:55:36;;;;;;;5.80;5.18;;;19.80;98.80;;;;;;5091304;28;20095;-72
2023/06/05 06:58:02;;;;;;;7.90;5.35;;;19.80;98.90;;;;;;5074498;28;20031;-71
2023/06/05 07:00:28;;;;;;;8.65;6.05;;;19.70;98.80;;;;;;5108146;28;20027;-71
2023/06/05 07:02:54;;;;;;;7.60;4.97;;;19.70;98.90;;;;;;5094849;28;20035;-71
2023/06/05 07:05:20;;;;;;;6.80;5.47;;;19.70;99.10;;;;;;5113385;28;20069;-69
2023/06/05 07:07:46;;;;;;;8.85;5.63;;;19.70;99.20;;;;;;5107102;28;20036;-69
2023/06/05 07:10:12;;;;;;;12.93;5.78;;;19.70;99.10;;;;;;5103379;28;20627;-69
2023/06/05 07:12:38;;;;;;;8.38;5.60;;;19.80;99.30;;;;;;5103990;28;20109;-69
2023/06/05 07:15:04;;;;;;;7.00;5.93;;;19.70;99.10;;;;;;5102342;28;20023;-70
2023/06/05 07:17:40;;;;;;;5.95;5.32;;;19.70;99.20;;;;;;5085529;28;20027;-70
2023/06/05 07:20:08;;;;;;;9.18;5.60;;;19.70;99.20;;;;;;5084803;28;20365;-70
2023/06/05 07:23:33;;;;;;;6.22;5.25;;;19.80;99.20;;;;;;5100513;28;20086;-69
2023/06/05 07:26:18;;;;;;;10.57;5.82;;;19.80;99.30;;;;;;5056681;28;20388;-69
2023/06/05 07:29:02;;;;;;;9.63;5.60;;;19.80;99.40;;;;;;5102194;28;20028;-69
2023/06/05 07:32:07;;;;;;;8.25;5.07;;;19.80;99.40;;;;;;5100449;28;20016;-69
2023/06/05 07:34:36;;;;;;;8.82;5.32;;;19.80;99.50;;;;;;5479743;22;20802;-70
2023/06/05 07:37:02;;;;;;;9.13;5.20;;;19.80;99.50;;;;;;5120286;27;20026;-68
2023/06/05 07:39:28;;;;;;;6.78;5.10;;;19.90;99.60;;;;;;5125222;27;20019;-71
2023/06/05 07:41:53;;;;;;;9.73;4.78;;;19.80;99.50;;;;;;5125462;27;20027;-69
2023/06/05 07:44:21;;;;;;;11.13;4.30;;;19.90;99.60;;;;;;5116531;28;20031;-68
2023/06/05 07:46:48;;;;;;;4.57;4.00;;;19.90;99.60;;;;;;5116180;28;20019;-68
2023/06/05 07:49:15;;;;;;;5.60;3.78;;;19.90;99.60;;;;;;5119800;27;20031;-69
2023/06/05 07:51:42;;;;;;;4.22;3.80;;;19.90;99.50;;;;;;5121654;27;20020;-68
2023/06/05 07:54:13;;;;;;;7.95;4.00;;;19.90;99.50;;;;;;5116849;27;20106;-70
2023/06/05 07:56:39;;;;;;;6.82;4.53;;;19.90;99.50;;;;;;5116201;28;20418;-68
2023/06/05 07:59:06;;;;;;;6.30;4.35;;;19.90;99.60;;;;;;5116215;28;20023;-70
2023/06/05 08:01:36;;;;;;;5.50;4.55;;;19.90;99.60;;;;;;5114932;28;20047;-68
2023/06/05 08:04:11;;;;;;;7.50;4.18;;;19.90;99.60;;;;;;5115691;28;20028;-68
2023/06/05 08:06:40;;;;;;;4.63;3.72;;;19.90;99.60;;;;;;5115569;28;20043;-68
2023/06/05 08:09:08;;;;;;;4.28;3.63;;;19.90;99.60;;;;;;5116387;28;20035;-68
2023/06/05 08:11:34;;;;;;;9.43;3.78;;;20.00;99.60;;;;;;5116366;28;20023;-68
2023/06/05 08:14:01;;;;;;;7.22;3.70;;;20.00;99.60;;;;;;5116006;28;20028;-69
2023/06/05 08:16:26;;;;;;;4.78;3.55;;;20.00;99.50;;;;;;5115777;28;20027;-70
2023/06/05 08:18:53;;;;;;;6.75;3.78;;;20.00;99.40;;;;;;5115743;28;20096;-71
2023/06/05 08:21:19;;;;;;;4.63;2.90;;;20.00;99.40;;;;;;5116055;28;20051;-70
2023/06/05 08:23:45;;;;;;;6.03;3.10;;;20.00;99.30;;;;;;5115881;28;20024;-69
2023/06/05 08:26:11;;;;;;;4.00;2.80;;;20.00;99.30;;;;;;5115543;28;20069;-69
2023/06/05 08:28:41;;;;;;;4.68;3.13;;;20.00;99.30;;;;;;5097286;28;20543;-69
2023/06/05 08:31:10;;;;;;;5.05;2.47;;;20.00;99.40;;;;;;5115406;28;20027;-68
2023/06/05 08:33:36;;;;;;;5.35;2.50;;;20.10;99.40;;;;;;5116304;28;20036;-68
2023/06/05 08:36:04;;;;;;;4.38;2.67;;;20.10;99.30;;;;;;5115508;28;20078;-68
2023/06/05 08:38:30;;;;;;;3.78;2.60;;;20.10;99.20;;;;;;5115583;28;20114;-70
2023/06/05 08:41:10;;;;;;;4.60;3.05;;;20.10;99.10;;;;;;5115715;28;20514;-69
2023/06/05 08:43:44;;;;;;;4.80;2.75;;;20.10;99.20;;;;;;5115588;28;20031;-69
2023/06/05 08:46:11;;;;;;;3.88;2.65;;;20.20;99.20;;;;;;5114828;28;20024;-68
2023/06/05 08:48:48;;;;;;;3.13;2.05;;;20.20;99.10;;;;;;5097143;28;20051;-69
2023/06/05 08:51:17;;;;;;;7.15;2.35;;;20.20;99.10;;;;;;5115542;28;20028;-68
2023/06/05 08:54:12;;;;;;;4.22;2.60;;;20.20;99.00;;;;;;5115423;28;20023;-68
2023/06/05 08:56:39;;;;;;;6.03;2.92;;;20.20;99.10;;;;;;5115937;28;20054;-68
2023/06/05 08:59:06;;;;;;;5.20;3.15;;;20.20;99.10;;;;;;5115541;28;20027;-69
2023/06/05 09:01:37;;;;;;;9.40;3.45;;;20.20;99.00;;;;;;5115703;28;20031;-68
2023/06/05 09:04:02;;;;;;;6.82;3.00;;;20.20;99.00;;;;;;5115589;28;20023;-68
2023/06/05 09:06:28;;;;;;;6.10;2.90;;;20.20;98.90;;;;;;5115605;28;20368;-68
2023/06/05 09:08:55;;;;;;;4.88;2.90;;;20.20;99.00;;;;;;5115237;28;20040;-69
2023/06/05 09:11:26;;;;;;;3.88;3.47;;;20.20;98.90;;;;;;5115335;28;20074;-68
2023/06/05 09:13:54;;;;;;;3.78;3.20;;;20.20;99.00;;;;;;5115397;28;20034;-68
2023/06/05 09:16:37;;;;;;;6.13;3.00;;;20.20;99.00;;;;;;5115164;28;20011;-69
2023/06/05 09:19:04;;;;;;;8.45;3.17;;;20.20;99.00;;;;;;5115257;28;20360;-69
2023/06/05 09:21:31;;;;;;;4.18;2.72;;;20.20;99.00;;;;;;5115385;28;20023;-69
2023/06/05 09:24:21;;;;;;;10.43;3.28;;;20.20;99.10;;;;;;5115358;28;20051;-68
2023/06/05 09:26:50;;;;;;;5.88;2.92;;;20.20;99.30;;;;;;5105326;28;20028;-69
2023/06/05 09:29:27;;;;;;;4.93;3.20;;;20.20;99.60;;;;;;5115218;28;20038;-68
2023/06/05 09:31:55;;;;;;;4.82;3.70;;;20.10;99.60;;;;;;5115264;28;20024;-68
2023/06/05 09:34:27;;;;;;;5.28;3.70;;;20.20;99.70;;;;;;5115154;28;20436;-68
2023/06/05 09:36:54;;;;;;;4.38;3.22;;;20.20;99.70;;;;;;5115168;28;20062;-68
2023/06/05 09:39:21;;;;;;;4.32;2.90;;;20.20;99.70;;;;;;5115038;28;20027;-68
2023/06/05 09:41:51;;;;;;;4.93;3.47;;;20.20;99.50;;;;;;5115097;28;20584;-68
2023/06/05 09:44:18;;;;;;;4.15;2.80;;;20.20;99.50;;;;;;5114862;28;20045;-68
2023/06/05 09:47:05;;;;;;;3.70;3.03;;;20.20;99.60;;;;;;5115232;28;20061;-68
2023/06/05 09:49:32;;;;;;;3.80;3.10;;;20.20;99.50;;;;;;5114905;28;20060;-68
2023/06/05 09:52:00;;;;;;;4.93;3.47;;;20.20;99.50;;;;;;5114829;28;20463;-67
2023/06/05 09:54:28;;;;;;;6.45;3.10;;;20.20;99.60;;;;;;5114780;28;20031;-68
2023/06/05 09:57:02;;;;;;;9.95;3.20;;;20.20;99.60;;;;;;5114332;28;20110;-69
2023/06/05 09:59:33;;;;;;;5.03;3.25;;;20.20;99.70;;;;;;5113790;28;20027;-68
2023/06/05 10:02:06;;;;;;;4.70;3.22;;;20.20;99.90;;;;;;5114382;28;20547;-68
2023/06/05 10:04:56;;;;;;;4.50;3.03;;;20.30;99.80;;;;;;5114570;28;20053;-68
2023/06/05 10:07:23;;;;;;;4.60;2.60;;;20.30;99.70;;;;;;5114344;28;20030;-68
2023/06/05 10:09:50;;;;;;;3.10;2.45;;;20.30;99.40;;;;;;5114303;28;20020;-68
2023/06/05 10:12:16;;;;;;;4.15;2.75;;;20.30;99.30;;;;;;5114078;28;20023;-68
2023/06/05 10:14:43;;;;;;;5.47;2.50;;;20.30;99.20;;;;;;5113710;28;20040;-68
2023/06/05 10:17:11;;;;;;;3.22;2.30;;;20.30;99.30;;;;;;5114071;28;20020;-68
2023/06/05 10:19:40;;;;;;;4.93;2.70;;;20.30;99.30;;;;;;5114132;28;20043;-68
2023/06/05 10:22:06;;;;;;;4.15;2.65;;;20.20;99.20;;;;;;5114310;28;20024;-68
2023/06/05 10:24:38;;;;;;;4.22;2.97;;;20.30;99.20;;;;;;5113939;28;20020;-69
2023/06/05 10:27:10;;;;;;;3.30;2.95;;;20.20;99.30;;;;;;5113796;28;20023;-68
2023/06/05 10:29:55;;;;;;;5.40;3.30;;;20.20;99.50;;;;;;5113960;28;20077;-68
2023/06/05 10:32:29;;;;;;;3.50;3.20;;;20.20;99.50;;;;;;5114055;28;20027;-68
2023/06/05 10:35:20;;;;;;;3.63;2.90;;;20.30;99.50;;;;;;5113855;28;20487;-69
2023/06/05 10:38:27;;;;;;;3.63;2.70;;;20.30;99.60;;;;;;5113567;28;20027;-68
2023/06/05 10:40:57;;;;;;;3.55;1.90;;;20.30;99.60;;;;;;5030683;28;20570;-69
2023/06/05 10:43:25;;;;;;;3.33;2.00;;;20.30;99.60;;;;;;5030635;28;20037;-68
2023/06/05 10:45:52;;;;;;;3.05;2.13;;;20.20;99.60;;;;;;5073356;28;20027;-68
2023/06/05 10:48:18;;;;;;;3.05;2.08;;;20.30;99.70;;;;;;5113499;28;20039;-68
2023/06/05 10:50:43;;;;;;;2.60;1.98;;;20.30;99.80;;;;;;5113243;28;20020;-69
2023/06/05 10:53:46;;;;;;;2.72;2.15;;;20.30;99.90;;;;;;5113323;28;20118;-68
2023/06/05 10:56:51;;;;;;;3.75;2.40;;;20.40;99.90;;;;;;5030621;28;20057;-69
2023/06/05 10:59:17;;;;;;;3.83;2.58;;;20.50;99.90;;;;;;5109385;28;20101;-69
2023/06/05 11:01:43;;;;;;;2.60;2.40;;;20.50;99.90;;;;;;5113292;28;20047;-68
2023/06/05 11:04:09;;;;;;;3.75;2.10;;;20.60;99.90;;;;;;5112976;28;20020;-69
2023/06/05 11:06:37;;;;;;;4.47;2.72;;;20.60;99.90;;;;;;5112745;28;20027;-69
2023/06/05 11:09:08;;;;;;;4.32;2.40;;;20.70;99.90;;;;;;5112889;28;20076;-68
2023/06/05 11:12:02;;;;;;;3.28;2.38;;;20.70;99.90;;;;;;5113136;28;20098;-69
2023/06/05 11:14:43;;;;;;;2.95;2.20;;;20.80;99.90;;;;;;5113295;28;20020;-68
2023/06/05 11:17:32;;;;;;;5.53;2.38;;;20.90;99.90;;;;;;5113051;28;20533;-69
2023/06/05 11:19:58;;;;;;;2.58;2.28;;;20.90;99.90;;;;;;5113162;28;20024;-68
2023/06/05 11:22:26;;;;;;;3.83;2.42;;;21.00;99.90;;;;;;5113112;28;20047;-68
2023/06/05 11:25:13;;;;;;;2.97;2.30;;;21.00;99.90;;;;;;5113075;28;20097;-69
2023/06/05 11:27:46;;;;;;;2.67;2.20;;;21.10;99.90;;;;;;5113207;28;20400;-68
2023/06/05 11:30:21;;;;;;;3.35;2.75;;;21.10;99.90;;;;;;5112855;28;20028;-68
2023/06/05 11:32:47;;;;;;;2.60;2.35;;;21.20;99.70;;;;;;5112632;28;20031;-68
2023/06/05 11:35:13;;;;;;;2.90;2.28;;;21.20;99.50;;;;;;5112438;28;20051;-68
2023/06/05 11:37:42;;;;;;;2.67;2.35;;;21.20;99.30;;;;;;5112414;28;20024;-68
2023/06/05 11:40:11;;;;;;;3.20;2.50;;;21.20;99.10;;;;;;5112688;28;20069;-69
2023/06/05 11:42:40;;;;;;;3.92;2.17;;;21.20;99.10;;;;;;5115817;28;20115;-68
2023/06/05 11:45:11;;;;;;;2.58;2.17;;;21.10;99.00;;;;;;5122538;28;20027;-68
2023/06/05 11:47:37;;;;;;;2.97;2.05;;;21.20;99.00;;;;;;5121452;28;20034;-68
2023/06/05 11:50:10;;;;;;;8.20;2.00;;;21.10;99.10;;;;;;5122085;28;20019;-69
2023/06/05 11:52:36;;;;;;;5.15;2.22;;;21.00;99.00;;;;;;5121750;28;20020;-68
2023/06/05 11:55:22;;;;;;;3.53;2.20;;;21.00;98.90;;;;;;5122564;28;20031;-68
2023/06/05 11:57:49;;;;;;;8.00;2.78;;;20.90;98.80;;;;;;5123396;28;20047;-68
2023/06/05 12:00:16;;;;;;;2.60;2.03;;;20.90;98.90;;;;;;5121228;28;20376;-68
2023/06/05 12:02:46;;;;;;;3.95;2.00;;;20.80;98.80;;;;;;5129943;28;20027;-68
2023/06/05 12:05:12;;;;;;;3.15;1.95;;;20.80;99.30;;;;;;5129675;28;20023;-68
2023/06/05 12:07:39;;;;;;;6.55;2.20;;;20.80;99.50;;;;;;5122647;28;20118;-68
2023/06/05 12:10:07;;;;;;;2.33;1.90;;;20.80;99.70;;;;;;5123094;28;20027;-68
2023/06/05 12:12:36;;;;;;;3.42;1.90;;;20.80;99.70;;;;;;5121382;28;20094;-68
2023/06/05 12:15:15;;;;;;;4.38;2.17;;;20.90;99.70;;;;;;5122320;28;20038;-69
2023/06/05 12:17:41;;;;;;;3.55;2.08;;;20.90;99.70;;;;;;5122275;28;20436;-68
2023/06/05 12:20:08;;;;;;;2.83;2.40;;;21.00;99.80;;;;;;5127665;28;20102;-68
2023/06/05 12:22:34;;;;;;;4.68;2.15;;;21.10;99.90;;;;;;5115541;28;20107;-68
2023/06/05 12:25:21;;;;;;;3.08;2.10;;;21.20;99.80;;;;;;5116264;28;20012;-68
2023/06/05 12:27:48;;;;;;;3.03;1.83;;;21.30;99.80;;;;;;5118923;27;20538;-69
2023/06/05 12:30:16;;;;;;;3.42;1.88;;;21.30;99.60;;;;;;5114879;28;20031;-69
2023/06/05 12:32:43;;;;;;;4.25;2.30;;;21.40;99.50;;;;;;5115058;28;20043;-68
2023/06/05 12:35:23;;;;;;;4.97;2.28;;;21.50;99.90;;;;;;5096478;28;20449;-69
2023/06/05 12:37:50;;;;;;;5.13;2.75;;;21.50;99.40;;;;;;5115840;28;20058;-68
2023/06/05 12:40:23;;;;;;;4.90;2.15;;;21.50;99.40;;;;;;5115940;28;20020;-68
2023/06/05 12:42:48;;;;;;;5.80;2.63;;;21.50;99.40;;;;;;5115954;28;20476;-68
2023/06/05 12:45:16;;;;;;;3.10;2.22;;;21.60;99.40;;;;;;5115971;28;20024;-68
2023/06/05 12:47:43;;;;;;;4.53;2.20;;;21.60;99.40;;;;;;5115816;28;20027;-69
2023/06/05 12:50:13;;;;;;;2.72;2.10;;;21.60;99.70;;;;;;5115782;28;20027;-68
2023/06/05 12:52:42;;;;;;;2.35;2.15;;;21.60;99.40;;;;;;5116122;28;20020;-68
2023/06/05 12:55:09;;;;;;;2.85;2.47;;;21.60;99.10;;;;;;5115767;28;20024;-68
2023/06/05 12:57:35;;;;;;;2.40;2.20;;;21.60;99.10;;;;;;5118190;27;20024;-68
2023/06/05 13:00:13;;;;;;;3.45;2.10;;;21.60;99.10;;;;;;5118701;27;20027;-69
2023/06/05 13:02:45;;;;;;;4.13;2.55;;;21.60;98.80;;;;;;5115616;28;20019;-68
2023/06/05 13:05:11;;;;;;;;;;;21.60;98.50;;;;;;5116100;28;20419;-69
2023/06/05 13:07:39;;;;;;;5.03;2.22;;;21.60;98.40;;;;;;5115374;28;20011;-68
2023/06/05 13:10:06;;;;;;;3.85;2.25;;;21.60;98.10;;;;;;5097209;28;20039;-68
2023/06/05 13:12:31;;;;;;;3.00;2.60;;;21.60;98.10;;;;;;5115322;28;20011;-69
2023/06/05 13:14:57;;;;;;;3.67;2.58;;;21.60;97.90;;;;;;5115246;28;20494;-68
2023/06/05 13:17:23;;;;;;;4.22;2.53;;;21.70;97.70;;;;;;5115231;28;20046;-70
2023/06/05 13:19:49;;;;;;;4.22;2.67;;;21.70;97.50;;;;;;5115636;28;20490;-68
2023/06/05 13:22:16;;;;;;;3.15;2.22;;;21.70;97.20;;;;;;5115412;28;20020;-71
2023/06/05 13:24:41;;;;;;;6.97;2.60;;;21.80;96.90;;;;;;5115083;28;20031;-71
2023/06/05 13:27:08;;;;;;;4.15;2.50;;;21.80;96.70;;;;;;5114932;28;20015;-71
2023/06/05 13:29:33;;;;;;;3.88;2.28;;;21.80;96.10;;;;;;5128551;27;20038;-71
2023/06/05 13:31:59;;;;;;;3.88;2.40;;;21.80;96.10;;;;;;5125065;27;20027;-70
2023/06/05 13:34:24;;;;;;;5.88;2.65;;;21.80;95.10;;;;;;5125441;27;20027;-70
2023/06/05 13:36:50;;;;;;;5.07;2.30;;;21.70;94.60;;;;;;5132320;27;20053;-70
2023/06/05 13:39:16;;;;;;;2.88;2.38;;;21.70;94.30;;;;;;5135649;27;20112;-69
2023/06/05 13:41:41;;;;;;;3.70;2.35;;;21.60;94.20;;;;;;5134241;27;20100;-70
2023/06/05 13:44:07;;;;;;;3.88;2.40;;;21.60;94.10;;;;;;5120252;27;20020;-70